sensor_id;sensor_type;location;lat;lon;timestamp;P1;durP1;ratioP1;P2;durP2;ratioP2
38940;SDS011;43236;47.208;7.518;2023-11-21T00:01:38;3.10;;;1.27;;
38940;SDS011;43236;47.208;7.518;2023-11-21T00:04:25;1.63;;;1.30;;
38940;SDS011;43236;47.208;7.518;2023-11-21T00:07:13;1.50;;;1.33;;
38940;SDS011;43236;47.208;7.518;2023-11-21T00:10:02;5.80;;;1.13;;
38940;SDS011;43236;47.208;7.518;2023-11-21T00:12:50;2.38;;;2.25;;
38940;SDS011;43236;47.208;7.518;2023-11-21T00:15:40;3.70;;;1.00;;
38940;SDS011;43236;47.208;7.518;2023-11-21T00:18:28;2.58;;;1.20;;
38940;SDS011;43236;47.208;7.518;2023-11-21T00:21:15;1.60;;;0.70;;
38940;SDS011;43236;47.208;7.518;2023-11-21T00:24:02;5.60;;;1.38;;
38940;SDS011;43236;47.208;7.518;2023-11-21T00:26:50;4.65;;;1.20;;
38940;SDS011;43236;47.208;7.518;2023-11-21T00:29:37;2.33;;;0.90;;
38940;SDS011;43236;47.208;7.518;2023-11-21T00:32:24;1.45;;;1.35;;
38940;SDS011;43236;47.208;7.518;2023-11-21T00:35:12;2.75;;;1.77;;
38940;SDS011;43236;47.208;7.518;2023-11-21T00:38:00;2.55;;;1.38;;
38940;SDS011;43236;47.208;7.518;2023-11-21T00:40:47;3.28;;;1.20;;
38940;SDS011;43236;47.208;7.518;2023-11-21T00:43:34;1.65;;;1.27;;
38940;SDS011;43236;47.208;7.518;2023-11-21T00:46:21;2.42;;;0.93;;
38940;SDS011;43236;47.208;7.518;2023-11-21T00:49:09;1.33;;;0.82;;
38940;SDS011;43236;47.208;7.518;2023-11-21T00:51:58;2.63;;;0.90;;
38940;SDS011;43236;47.208;7.518;2023-11-21T00:54:45;5.10;;;1.75;;
38940;SDS011;43236;47.208;7.518;2023-11-21T00:57:33;3.40;;;0.80;;
38940;SDS011;43236;47.208;7.518;2023-11-21T01:00:20;3.03;;;1.55;;
38940;SDS011;43236;47.208;7.518;2023-11-21T01:03:08;0.60;;;0.60;;
38940;SDS011;43236;47.208;7.518;2023-11-21T01:05:55;1.30;;;0.90;;
38940;SDS011;43236;47.208;7.518;2023-11-21T01:08:44;1.08;;;0.82;;
38940;SDS011;43236;47.208;7.518;2023-11-21T01:11:31;1.85;;;0.82;;
38940;SDS011;43236;47.208;7.518;2023-11-21T01:14:21;2.90;;;2.75;;
38940;SDS011;43236;47.208;7.518;2023-11-21T01:17:08;1.70;;;0.75;;
38940;SDS011;43236;47.208;7.518;2023-11-21T01:19:55;1.05;;;0.90;;
38940;SDS011;43236;47.208;7.518;2023-11-21T01:22:43;0.88;;;0.85;;
38940;SDS011;43236;47.208;7.518;2023-11-21T01:25:31;0.63;;;0.50;;
38940;SDS011;43236;47.208;7.518;2023-11-21T01:28:18;5.15;;;1.58;;
38940;SDS011;43236;47.208;7.518;2023-11-21T01:31:06;1.25;;;0.95;;
38940;SDS011;43236;47.208;7.518;2023-11-21T01:33:53;1.65;;;0.80;;
38940;SDS011;43236;47.208;7.518;2023-11-21T01:36:40;0.70;;;0.70;;
38940;SDS011;43236;47.208;7.518;2023-11-21T01:39:27;1.63;;;0.70;;
38940;SDS011;43236;47.208;7.518;2023-11-21T01:42:16;3.58;;;0.70;;
38940;SDS011;43236;47.208;7.518;2023-11-21T01:45:04;1.27;;;0.80;;
38940;SDS011;43236;47.208;7.518;2023-11-21T01:47:52;1.02;;;0.82;;
38940;SDS011;43236;47.208;7.518;2023-11-21T01:50:39;2.17;;;0.98;;
38940;SDS011;43236;47.208;7.518;2023-11-21T01:53:26;1.13;;;1.00;;
38940;SDS011;43236;47.208;7.518;2023-11-21T01:56:14;1.67;;;1.23;;
38940;SDS011;43236;47.208;7.518;2023-11-21T01:59:02;2.45;;;1.20;;
38940;SDS011;43236;47.208;7.518;2023-11-21T02:01:49;0.80;;;0.80;;
38940;SDS011;43236;47.208;7.518;2023-11-21T02:04:36;1.52;;;1.20;;
38940;SDS011;43236;47.208;7.518;2023-11-21T02:07:23;2.55;;;1.08;;
38940;SDS011;43236;47.208;7.518;2023-11-21T02:10:11;1.60;;;1.15;;
38940;SDS011;43236;47.208;7.518;2023-11-21T02:12:59;3.78;;;1.08;;
38940;SDS011;43236;47.208;7.518;2023-11-21T02:15:49;1.02;;;0.65;;
38940;SDS011;43236;47.208;7.518;2023-11-21T02:18:37;1.73;;;0.68;;
38940;SDS011;43236;47.208;7.518;2023-11-21T02:21:24;1.48;;;0.90;;
38940;SDS011;43236;47.208;7.518;2023-11-21T02:24:13;1.02;;;0.95;;
38940;SDS011;43236;47.208;7.518;2023-11-21T02:27:01;2.15;;;0.60;;
38940;SDS011;43236;47.208;7.518;2023-11-21T02:29:48;3.22;;;1.13;;
38940;SDS011;43236;47.208;7.518;2023-11-21T02:32:35;2.75;;;1.23;;
38940;SDS011;43236;47.208;7.518;2023-11-21T02:35:22;2.25;;;1.20;;
38940;SDS011;43236;47.208;7.518;2023-11-21T02:38:11;1.40;;;1.15;;
38940;SDS011;43236;47.208;7.518;2023-11-21T02:40:59;1.75;;;0.90;;
38940;SDS011;43236;47.208;7.518;2023-11-21T02:43:46;1.40;;;1.00;;
38940;SDS011;43236;47.208;7.518;2023-11-21T02:46:33;1.65;;;0.90;;
38940;SDS011;43236;47.208;7.518;2023-11-21T02:49:20;2.40;;;1.38;;
38940;SDS011;43236;47.208;7.518;2023-11-21T02:52:07;1.05;;;0.90;;
38940;SDS011;43236;47.208;7.518;2023-11-21T02:54:55;1.30;;;1.02;;
38940;SDS011;43236;47.208;7.518;2023-11-21T02:57:43;1.27;;;1.15;;
38940;SDS011;43236;47.208;7.518;2023-11-21T03:00:30;2.33;;;1.13;;
38940;SDS011;43236;47.208;7.518;2023-11-21T03:03:17;1.80;;;1.17;;
38940;SDS011;43236;47.208;7.518;2023-11-21T03:06:04;2.88;;;0.90;;
38940;SDS011;43236;47.208;7.518;2023-11-21T03:08:52;1.45;;;1.00;;
38940;SDS011;43236;47.208;7.518;2023-11-21T03:11:38;8.40;;;1.73;;
38940;SDS011;43236;47.208;7.518;2023-11-21T03:14:27;1.38;;;0.95;;
38940;SDS011;43236;47.208;7.518;2023-11-21T03:17:14;1.95;;;0.60;;
38940;SDS011;43236;47.208;7.518;2023-11-21T03:20:01;1.98;;;1.13;;
38940;SDS011;43236;47.208;7.518;2023-11-21T03:22:49;2.03;;;1.58;;
38940;SDS011;43236;47.208;7.518;2023-11-21T03:25:36;3.35;;;1.27;;
38940;SDS011;43236;47.208;7.518;2023-11-21T03:28:23;0.88;;;0.82;;
38940;SDS011;43236;47.208;7.518;2023-11-21T03:31:12;2.97;;;1.25;;
38940;SDS011;43236;47.208;7.518;2023-11-21T03:33:59;4.30;;;0.85;;
38940;SDS011;43236;47.208;7.518;2023-11-21T03:36:46;1.58;;;1.42;;
38940;SDS011;43236;47.208;7.518;2023-11-21T03:39:33;0.75;;;0.75;;
38940;SDS011;43236;47.208;7.518;2023-11-21T03:42:20;6.05;;;1.38;;
38940;SDS011;43236;47.208;7.518;2023-11-21T03:45:08;2.67;;;1.08;;
38940;SDS011;43236;47.208;7.518;2023-11-21T03:47:58;2.75;;;1.52;;
38940;SDS011;43236;47.208;7.518;2023-11-21T03:50:47;2.38;;;0.85;;
38940;SDS011;43236;47.208;7.518;2023-11-21T03:53:34;2.90;;;0.80;;
38940;SDS011;43236;47.208;7.518;2023-11-21T03:56:21;6.40;;;1.02;;
38940;SDS011;43236;47.208;7.518;2023-11-21T03:59:08;0.95;;;0.95;;
38940;SDS011;43236;47.208;7.518;2023-11-21T04:01:55;1.10;;;0.88;;
38940;SDS011;43236;47.208;7.518;2023-11-21T04:04:44;3.47;;;1.50;;
38940;SDS011;43236;47.208;7.518;2023-11-21T04:07:31;2.10;;;1.02;;
38940;SDS011;43236;47.208;7.518;2023-11-21T04:10:18;1.52;;;0.93;;
38940;SDS011;43236;47.208;7.518;2023-11-21T04:13:07;2.75;;;1.77;;
38940;SDS011;43236;47.208;7.518;2023-11-21T04:15:54;1.40;;;0.90;;
38940;SDS011;43236;47.208;7.518;2023-11-21T04:18:41;3.20;;;1.50;;
38940;SDS011;43236;47.208;7.518;2023-11-21T04:21:30;2.20;;;1.02;;
38940;SDS011;43236;47.208;7.518;2023-11-21T04:24:18;1.98;;;0.90;;
38940;SDS011;43236;47.208;7.518;2023-11-21T04:27:05;1.52;;;0.77;;
38940;SDS011;43236;47.208;7.518;2023-11-21T04:29:53;1.90;;;1.00;;
38940;SDS011;43236;47.208;7.518;2023-11-21T04:32:40;0.80;;;0.70;;
38940;SDS011;43236;47.208;7.518;2023-11-21T04:35:27;1.55;;;1.08;;
38940;SDS011;43236;47.208;7.518;2023-11-21T04:38:16;3.65;;;1.30;;
38940;SDS011;43236;47.208;7.518;2023-11-21T04:41:04;1.17;;;0.82;;
38940;SDS011;43236;47.208;7.518;2023-11-21T04:43:51;1.35;;;0.80;;
38940;SDS011;43236;47.208;7.518;2023-11-21T04:46:38;2.95;;;1.10;;
38940;SDS011;43236;47.208;7.518;2023-11-21T04:49:25;1.10;;;0.98;;
38940;SDS011;43236;47.208;7.518;2023-11-21T04:52:13;1.05;;;0.98;;
38940;SDS011;43236;47.208;7.518;2023-11-21T04:55:01;0.98;;;0.75;;
38940;SDS011;43236;47.208;7.518;2023-11-21T04:57:48;0.70;;;0.70;;
38940;SDS011;43236;47.208;7.518;2023-11-21T05:00:35;1.33;;;1.02;;
38940;SDS011;43236;47.208;7.518;2023-11-21T05:03:22;2.97;;;1.00;;
38940;SDS011;43236;47.208;7.518;2023-11-21T05:06:10;3.63;;;1.05;;
38940;SDS011;43236;47.208;7.518;2023-11-21T05:08:57;0.93;;;0.93;;
38940;SDS011;43236;47.208;7.518;2023-11-21T05:11:45;1.85;;;0.85;;
38940;SDS011;43236;47.208;7.518;2023-11-21T05:14:32;1.83;;;1.42;;
38940;SDS011;43236;47.208;7.518;2023-11-21T05:17:19;2.25;;;0.90;;
38940;SDS011;43236;47.208;7.518;2023-11-21T05:20:07;4.45;;;1.20;;
38940;SDS011;43236;47.208;7.518;2023-11-21T05:22:55;2.40;;;1.52;;
38940;SDS011;43236;47.208;7.518;2023-11-21T05:25:42;2.28;;;1.10;;
38940;SDS011;43236;47.208;7.518;2023-11-21T05:28:30;1.25;;;1.10;;
38940;SDS011;43236;47.208;7.518;2023-11-21T05:31:17;1.23;;;1.05;;
38940;SDS011;43236;47.208;7.518;2023-11-21T05:34:04;1.55;;;1.05;;
38940;SDS011;43236;47.208;7.518;2023-11-21T05:36:51;4.70;;;1.73;;
38940;SDS011;43236;47.208;7.518;2023-11-21T05:39:38;2.58;;;1.27;;
38940;SDS011;43236;47.208;7.518;2023-11-21T05:42:25;1.00;;;1.00;;
38940;SDS011;43236;47.208;7.518;2023-11-21T05:45:14;1.85;;;0.77;;
38940;SDS011;43236;47.208;7.518;2023-11-21T05:48:01;2.83;;;1.77;;
38940;SDS011;43236;47.208;7.518;2023-11-21T05:50:49;1.15;;;1.05;;
38940;SDS011;43236;47.208;7.518;2023-11-21T05:53:36;2.67;;;0.95;;
38940;SDS011;43236;47.208;7.518;2023-11-21T05:56:23;0.70;;;0.63;;
38940;SDS011;43236;47.208;7.518;2023-11-21T05:59:10;0.90;;;0.90;;
38940;SDS011;43236;47.208;7.518;2023-11-21T06:01:58;2.55;;;1.00;;
38940;SDS011;43236;47.208;7.518;2023-11-21T06:04:45;1.17;;;0.98;;
38940;SDS011;43236;47.208;7.518;2023-11-21T06:07:32;2.83;;;1.17;;
38940;SDS011;43236;47.208;7.518;2023-11-21T06:10:20;1.92;;;1.42;;
38940;SDS011;43236;47.208;7.518;2023-11-21T06:13:09;3.95;;;1.85;;
38940;SDS011;43236;47.208;7.518;2023-11-21T06:15:56;1.02;;;1.00;;
38940;SDS011;43236;47.208;7.518;2023-11-21T06:18:45;3.28;;;1.75;;
38940;SDS011;43236;47.208;7.518;2023-11-21T06:21:32;2.33;;;1.63;;
38940;SDS011;43236;47.208;7.518;2023-11-21T06:24:20;12.40;;;2.22;;
38940;SDS011;43236;47.208;7.518;2023-11-21T06:27:08;1.77;;;1.67;;
38940;SDS011;43236;47.208;7.518;2023-11-21T06:29:55;1.90;;;1.38;;
38940;SDS011;43236;47.208;7.518;2023-11-21T06:32:42;3.17;;;1.55;;
38940;SDS011;43236;47.208;7.518;2023-11-21T06:35:32;1.80;;;1.38;;
38940;SDS011;43236;47.208;7.518;2023-11-21T06:38:20;1.67;;;1.40;;
38940;SDS011;43236;47.208;7.518;2023-11-21T06:41:07;2.03;;;1.27;;
38940;SDS011;43236;47.208;7.518;2023-11-21T06:43:54;1.52;;;1.42;;
38940;SDS011;43236;47.208;7.518;2023-11-21T06:46:41;1.88;;;1.08;;
38940;SDS011;43236;47.208;7.518;2023-11-21T06:49:28;1.67;;;1.25;;
38940;SDS011;43236;47.208;7.518;2023-11-21T06:52:18;1.48;;;0.95;;
38940;SDS011;43236;47.208;7.518;2023-11-21T06:55:05;4.00;;;2.25;;
38940;SDS011;43236;47.208;7.518;2023-11-21T06:57:55;3.22;;;1.88;;
38940;SDS011;43236;47.208;7.518;2023-11-21T07:00:43;2.35;;;2.15;;
38940;SDS011;43236;47.208;7.518;2023-11-21T07:03:32;1.80;;;1.63;;
38940;SDS011;43236;47.208;7.518;2023-11-21T07:06:19;3.00;;;1.60;;
38940;SDS011;43236;47.208;7.518;2023-11-21T07:09:07;2.45;;;1.90;;
38940;SDS011;43236;47.208;7.518;2023-11-21T07:11:54;3.13;;;1.75;;
38940;SDS011;43236;47.208;7.518;2023-11-21T07:14:42;1.98;;;1.42;;
38940;SDS011;43236;47.208;7.518;2023-11-21T07:17:30;1.33;;;1.13;;
38940;SDS011;43236;47.208;7.518;2023-11-21T07:20:17;2.88;;;2.38;;
38940;SDS011;43236;47.208;7.518;2023-11-21T07:23:04;6.15;;;2.45;;
38940;SDS011;43236;47.208;7.518;2023-11-21T07:25:52;4.10;;;2.63;;
38940;SDS011;43236;47.208;7.518;2023-11-21T07:28:39;4.55;;;2.35;;
38940;SDS011;43236;47.208;7.518;2023-11-21T07:31:26;3.15;;;2.15;;
38940;SDS011;43236;47.208;7.518;2023-11-21T07:34:14;4.30;;;2.33;;
38940;SDS011;43236;47.208;7.518;2023-11-21T07:37:01;5.20;;;2.28;;
38940;SDS011;43236;47.208;7.518;2023-11-21T07:39:49;2.35;;;1.60;;
38940;SDS011;43236;47.208;7.518;2023-11-21T07:42:42;6.38;;;2.25;;
38940;SDS011;43236;47.208;7.518;2023-11-21T07:45:29;8.65;;;2.38;;
38940;SDS011;43236;47.208;7.518;2023-11-21T07:48:16;2.33;;;1.73;;
38940;SDS011;43236;47.208;7.518;2023-11-21T07:51:03;3.60;;;2.28;;
38940;SDS011;43236;47.208;7.518;2023-11-21T07:53:50;2.97;;;2.33;;
38940;SDS011;43236;47.208;7.518;2023-11-21T07:56:37;1.80;;;1.30;;
38940;SDS011;43236;47.208;7.518;2023-11-21T07:59:25;1.60;;;1.50;;
38940;SDS011;43236;47.208;7.518;2023-11-21T08:02:12;2.72;;;1.58;;
38940;SDS011;43236;47.208;7.518;2023-11-21T08:05:01;1.52;;;1.42;;
38940;SDS011;43236;47.208;7.518;2023-11-21T08:07:49;5.47;;;1.70;;
38940;SDS011;43236;47.208;7.518;2023-11-21T08:10:36;2.85;;;1.67;;
38940;SDS011;43236;47.208;7.518;2023-11-21T08:13:24;2.00;;;1.35;;
38940;SDS011;43236;47.208;7.518;2023-11-21T08:16:13;2.22;;;1.98;;
38940;SDS011;43236;47.208;7.518;2023-11-21T08:19:02;1.67;;;1.58;;
38940;SDS011;43236;47.208;7.518;2023-11-21T08:21:49;1.85;;;1.50;;
38940;SDS011;43236;47.208;7.518;2023-11-21T08:24:36;1.60;;;1.40;;
38940;SDS011;43236;47.208;7.518;2023-11-21T08:27:23;5.15;;;2.38;;
38940;SDS011;43236;47.208;7.518;2023-11-21T08:30:10;5.53;;;2.00;;
38940;SDS011;43236;47.208;7.518;2023-11-21T08:33:00;3.83;;;1.75;;
38940;SDS011;43236;47.208;7.518;2023-11-21T08:35:48;1.83;;;1.25;;
38940;SDS011;43236;47.208;7.518;2023-11-21T08:38:35;6.03;;;2.53;;
38940;SDS011;43236;47.208;7.518;2023-11-21T08:41:23;3.72;;;2.10;;
38940;SDS011;43236;47.208;7.518;2023-11-21T08:44:10;4.30;;;2.13;;
38940;SDS011;43236;47.208;7.518;2023-11-21T08:46:57;2.72;;;1.65;;
38940;SDS011;43236;47.208;7.518;2023-11-21T08:49:45;3.53;;;1.80;;
38940;SDS011;43236;47.208;7.518;2023-11-21T08:52:33;3.70;;;1.38;;
38940;SDS011;43236;47.208;7.518;2023-11-21T08:55:20;1.45;;;1.25;;
38940;SDS011;43236;47.208;7.518;2023-11-21T08:58:07;4.47;;;1.98;;
38940;SDS011;43236;47.208;7.518;2023-11-21T09:00:54;1.00;;;0.88;;
38940;SDS011;43236;47.208;7.518;2023-11-21T09:03:41;1.52;;;1.42;;
38940;SDS011;43236;47.208;7.518;2023-11-21T09:06:30;2.58;;;1.55;;
38940;SDS011;43236;47.208;7.518;2023-11-21T09:09:17;3.67;;;1.67;;
38940;SDS011;43236;47.208;7.518;2023-11-21T09:12:05;2.38;;;1.45;;
38940;SDS011;43236;47.208;7.518;2023-11-21T09:14:52;3.03;;;1.70;;
38940;SDS011;43236;47.208;7.518;2023-11-21T09:17:39;4.05;;;1.63;;
38940;SDS011;43236;47.208;7.518;2023-11-21T09:20:28;2.92;;;2.25;;
38940;SDS011;43236;47.208;7.518;2023-11-21T09:23:16;1.60;;;1.48;;
38940;SDS011;43236;47.208;7.518;2023-11-21T09:26:03;4.18;;;2.30;;
38940;SDS011;43236;47.208;7.518;2023-11-21T09:28:51;2.50;;;2.30;;
38940;SDS011;43236;47.208;7.518;2023-11-21T09:31:38;2.15;;;1.73;;
38940;SDS011;43236;47.208;7.518;2023-11-21T09:34:25;5.63;;;2.17;;
38940;SDS011;43236;47.208;7.518;2023-11-21T09:37:12;4.40;;;2.08;;
38940;SDS011;43236;47.208;7.518;2023-11-21T09:40:01;3.65;;;1.63;;
38940;SDS011;43236;47.208;7.518;2023-11-21T09:42:51;3.83;;;1.58;;
38940;SDS011;43236;47.208;7.518;2023-11-21T09:45:42;3.80;;;1.92;;
38940;SDS011;43236;47.208;7.518;2023-11-21T09:48:32;2.42;;;1.63;;
38940;SDS011;43236;47.208;7.518;2023-11-21T09:51:22;2.88;;;2.15;;
38940;SDS011;43236;47.208;7.518;2023-11-21T09:54:15;1.77;;;1.48;;
38940;SDS011;43236;47.208;7.518;2023-11-21T09:57:06;2.28;;;1.52;;
38940;SDS011;43236;47.208;7.518;2023-11-21T09:59:54;1.50;;;1.20;;
38940;SDS011;43236;47.208;7.518;2023-11-21T10:02:44;3.40;;;1.92;;
38940;SDS011;43236;47.208;7.518;2023-11-21T10:05:32;2.83;;;1.65;;
38940;SDS011;43236;47.208;7.518;2023-11-21T10:08:20;2.60;;;1.52;;
38940;SDS011;43236;47.208;7.518;2023-11-21T10:11:12;2.78;;;1.67;;
38940;SDS011;43236;47.208;7.518;2023-11-21T10:14:02;1.23;;;1.13;;
38940;SDS011;43236;47.208;7.518;2023-11-21T10:16:50;1.30;;;1.20;;
38940;SDS011;43236;47.208;7.518;2023-11-21T10:19:38;1.42;;;1.20;;
38940;SDS011;43236;47.208;7.518;2023-11-21T10:22:26;2.33;;;1.30;;
38940;SDS011;43236;47.208;7.518;2023-11-21T10:25:13;2.67;;;1.67;;
38940;SDS011;43236;47.208;7.518;2023-11-21T10:28:01;3.55;;;2.10;;
38940;SDS011;43236;47.208;7.518;2023-11-21T10:30:51;1.48;;;1.30;;
38940;SDS011;43236;47.208;7.518;2023-11-21T10:33:38;1.92;;;1.58;;
38940;SDS011;43236;47.208;7.518;2023-11-21T10:36:26;4.07;;;2.03;;
38940;SDS011;43236;47.208;7.518;2023-11-21T10:39:14;2.80;;;1.77;;
38940;SDS011;43236;47.208;7.518;2023-11-21T10:42:03;1.70;;;1.48;;
38940;SDS011;43236;47.208;7.518;2023-11-21T10:44:52;2.92;;;1.80;;
38940;SDS011;43236;47.208;7.518;2023-11-21T10:47:41;4.85;;;2.25;;
38940;SDS011;43236;47.208;7.518;2023-11-21T10:50:30;3.35;;;1.83;;
38940;SDS011;43236;47.208;7.518;2023-11-21T10:53:19;2.95;;;2.10;;
38940;SDS011;43236;47.208;7.518;2023-11-21T10:56:08;2.88;;;1.90;;
38940;SDS011;43236;47.208;7.518;2023-11-21T10:58:57;2.13;;;1.80;;
38940;SDS011;43236;47.208;7.518;2023-11-21T11:01:44;1.90;;;1.40;;
38940;SDS011;43236;47.208;7.518;2023-11-21T11:04:33;1.75;;;1.60;;
38940;SDS011;43236;47.208;7.518;2023-11-21T11:07:25;3.13;;;1.48;;
38940;SDS011;43236;47.208;7.518;2023-11-21T11:10:13;3.15;;;1.80;;
38940;SDS011;43236;47.208;7.518;2023-11-21T11:13:01;2.00;;;1.08;;
38940;SDS011;43236;47.208;7.518;2023-11-21T11:15:48;1.83;;;1.27;;
38940;SDS011;43236;47.208;7.518;2023-11-21T11:18:36;1.17;;;0.98;;
38940;SDS011;43236;47.208;7.518;2023-11-21T11:21:27;1.48;;;1.13;;
38940;SDS011;43236;47.208;7.518;2023-11-21T11:24:30;5.15;;;2.00;;
38940;SDS011;43236;47.208;7.518;2023-11-21T11:27:30;2.28;;;1.10;;
38940;SDS011;43236;47.208;7.518;2023-11-21T11:30:27;1.25;;;1.15;;
38940;SDS011;43236;47.208;7.518;2023-11-21T11:33:28;1.38;;;1.10;;
38940;SDS011;43236;47.208;7.518;2023-11-21T11:36:28;2.22;;;1.30;;
38940;SDS011;43236;47.208;7.518;2023-11-21T11:39:26;0.80;;;0.68;;
38940;SDS011;43236;47.208;7.518;2023-11-21T11:42:14;1.67;;;1.20;;
38940;SDS011;43236;47.208;7.518;2023-11-21T11:45:06;1.40;;;0.73;;
38940;SDS011;43236;47.208;7.518;2023-11-21T11:48:05;0.77;;;0.77;;
38940;SDS011;43236;47.208;7.518;2023-11-21T11:51:01;1.15;;;0.95;;
38940;SDS011;43236;47.208;7.518;2023-11-21T11:53:51;1.40;;;0.93;;
38940;SDS011;43236;47.208;7.518;2023-11-21T11:56:39;0.47;;;0.40;;
38940;SDS011;43236;47.208;7.518;2023-11-21T11:59:26;0.95;;;0.77;;
38940;SDS011;43236;47.208;7.518;2023-11-21T12:02:13;0.43;;;0.43;;
38940;SDS011;43236;47.208;7.518;2023-11-21T12:05:01;0.40;;;0.40;;
38940;SDS011;43236;47.208;7.518;2023-11-21T12:07:57;0.68;;;0.68;;
38940;SDS011;43236;47.208;7.518;2023-11-21T12:10:47;0.30;;;0.30;;
38940;SDS011;43236;47.208;7.518;2023-11-21T12:13:35;0.98;;;0.47;;
38940;SDS011;43236;47.208;7.518;2023-11-21T12:16:23;0.38;;;0.38;;
38940;SDS011;43236;47.208;7.518;2023-11-21T12:19:12;0.35;;;0.35;;
38940;SDS011;43236;47.208;7.518;2023-11-21T12:22:00;0.40;;;0.40;;
38940;SDS011;43236;47.208;7.518;2023-11-21T12:24:47;0.50;;;0.50;;
38940;SDS011;43236;47.208;7.518;2023-11-21T12:27:35;0.75;;;0.50;;
38940;SDS011;43236;47.208;7.518;2023-11-21T12:30:23;0.50;;;0.50;;
38940;SDS011;43236;47.208;7.518;2023-11-21T12:33:13;3.00;;;0.55;;
38940;SDS011;43236;47.208;7.518;2023-11-21T12:36:03;0.30;;;0.30;;
38940;SDS011;43236;47.208;7.518;2023-11-21T12:38:51;1.20;;;0.47;;
38940;SDS011;43236;47.208;7.518;2023-11-21T12:41:38;0.45;;;0.45;;
38940;SDS011;43236;47.208;7.518;2023-11-21T12:44:27;0.50;;;0.50;;
38940;SDS011;43236;47.208;7.518;2023-11-21T12:47:16;3.10;;;1.42;;
38940;SDS011;43236;47.208;7.518;2023-11-21T12:50:04;0.73;;;0.70;;
38940;SDS011;43236;47.208;7.518;2023-11-21T12:52:58;0.20;;;0.20;;
38940;SDS011;43236;47.208;7.518;2023-11-21T12:55:47;3.03;;;1.58;;
38940;SDS011;43236;47.208;7.518;2023-11-21T12:58:36;1.15;;;0.60;;
38940;SDS011;43236;47.208;7.518;2023-11-21T13:01:26;1.40;;;0.70;;
38940;SDS011;43236;47.208;7.518;2023-11-21T13:04:15;0.98;;;0.98;;
38940;SDS011;43236;47.208;7.518;2023-11-21T13:07:04;0.70;;;0.60;;
38940;SDS011;43236;47.208;7.518;2023-11-21T13:09:59;0.50;;;0.50;;
38940;SDS011;43236;47.208;7.518;2023-11-21T13:12:51;0.30;;;0.30;;
38940;SDS011;43236;47.208;7.518;2023-11-21T13:15:40;0.63;;;0.63;;
38940;SDS011;43236;47.208;7.518;2023-11-21T13:18:35;0.98;;;0.57;;
38940;SDS011;43236;47.208;7.518;2023-11-21T13:21:22;0.50;;;0.50;;
38940;SDS011;43236;47.208;7.518;2023-11-21T13:24:09;0.43;;;0.43;;
38940;SDS011;43236;47.208;7.518;2023-11-21T13:26:56;0.65;;;0.38;;
38940;SDS011;43236;47.208;7.518;2023-11-21T13:29:43;0.80;;;0.70;;
38940;SDS011;43236;47.208;7.518;2023-11-21T13:32:30;0.60;;;0.47;;
38940;SDS011;43236;47.208;7.518;2023-11-21T13:35:19;0.85;;;0.40;;
38940;SDS011;43236;47.208;7.518;2023-11-21T13:38:09;1.00;;;0.30;;
38940;SDS011;43236;47.208;7.518;2023-11-21T13:40:57;0.85;;;0.75;;
38940;SDS011;43236;47.208;7.518;2023-11-21T13:43:44;0.32;;;0.32;;
38940;SDS011;43236;47.208;7.518;2023-11-21T13:46:38;0.80;;;0.40;;
38940;SDS011;43236;47.208;7.518;2023-11-21T13:49:25;1.15;;;0.57;;
38940;SDS011;43236;47.208;7.518;2023-11-21T13:52:13;0.45;;;0.45;;
38940;SDS011;43236;47.208;7.518;2023-11-21T13:55:03;0.47;;;0.47;;
38940;SDS011;43236;47.208;7.518;2023-11-21T13:57:51;1.15;;;0.60;;
38940;SDS011;43236;47.208;7.518;2023-11-21T14:00:39;0.60;;;0.60;;
38940;SDS011;43236;47.208;7.518;2023-11-21T14:03:30;0.93;;;0.82;;
38940;SDS011;43236;47.208;7.518;2023-11-21T14:06:24;0.70;;;0.70;;
38940;SDS011;43236;47.208;7.518;2023-11-21T14:09:21;0.57;;;0.57;;
38940;SDS011;43236;47.208;7.518;2023-11-21T14:12:10;0.28;;;0.28;;
38940;SDS011;43236;47.208;7.518;2023-11-21T14:14:58;2.78;;;0.68;;
38940;SDS011;43236;47.208;7.518;2023-11-21T14:17:46;1.10;;;0.80;;
38940;SDS011;43236;47.208;7.518;2023-11-21T14:20:34;0.63;;;0.63;;
38940;SDS011;43236;47.208;7.518;2023-11-21T14:23:22;0.75;;;0.73;;
38940;SDS011;43236;47.208;7.518;2023-11-21T14:26:10;0.60;;;0.52;;
38940;SDS011;43236;47.208;7.518;2023-11-21T14:28:59;0.40;;;0.40;;
38940;SDS011;43236;47.208;7.518;2023-11-21T14:31:46;1.55;;;0.50;;
38940;SDS011;43236;47.208;7.518;2023-11-21T14:34:34;0.65;;;0.65;;
38940;SDS011;43236;47.208;7.518;2023-11-21T14:37:21;0.40;;;0.40;;
38940;SDS011;43236;47.208;7.518;2023-11-21T14:40:09;0.40;;;0.40;;
38940;SDS011;43236;47.208;7.518;2023-11-21T14:43:02;0.45;;;0.45;;
38940;SDS011;43236;47.208;7.518;2023-11-21T14:45:51;1.33;;;0.55;;
38940;SDS011;43236;47.208;7.518;2023-11-21T14:48:38;0.73;;;0.52;;
38940;SDS011;43236;47.208;7.518;2023-11-21T14:51:28;0.35;;;0.30;;
38940;SDS011;43236;47.208;7.518;2023-11-21T14:54:16;0.85;;;0.73;;
38940;SDS011;43236;47.208;7.518;2023-11-21T14:57:12;1.10;;;0.65;;
38940;SDS011;43236;47.208;7.518;2023-11-21T15:00:05;0.63;;;0.50;;
38940;SDS011;43236;47.208;7.518;2023-11-21T15:03:10;0.77;;;0.70;;
38940;SDS011;43236;47.208;7.518;2023-11-21T15:06:12;0.43;;;0.43;;
38940;SDS011;43236;47.208;7.518;2023-11-21T15:09:05;0.60;;;0.60;;
38940;SDS011;43236;47.208;7.518;2023-11-21T15:12:02;0.60;;;0.60;;
38940;SDS011;43236;47.208;7.518;2023-11-21T15:14:59;0.77;;;0.52;;
38940;SDS011;43236;47.208;7.518;2023-11-21T15:17:46;1.25;;;0.93;;
38940;SDS011;43236;47.208;7.518;2023-11-21T15:20:33;0.40;;;0.40;;
38940;SDS011;43236;47.208;7.518;2023-11-21T15:23:20;0.52;;;0.45;;
38940;SDS011;43236;47.208;7.518;2023-11-21T15:26:07;0.52;;;0.52;;
38940;SDS011;43236;47.208;7.518;2023-11-21T15:28:57;0.60;;;0.60;;
38940;SDS011;43236;47.208;7.518;2023-11-21T15:31:44;1.80;;;0.70;;
38940;SDS011;43236;47.208;7.518;2023-11-21T15:34:34;1.52;;;0.80;;
38940;SDS011;43236;47.208;7.518;2023-11-21T15:37:21;0.73;;;0.70;;
38940;SDS011;43236;47.208;7.518;2023-11-21T15:40:11;0.88;;;0.88;;
38940;SDS011;43236;47.208;7.518;2023-11-21T15:43:00;0.55;;;0.55;;
38940;SDS011;43236;47.208;7.518;2023-11-21T15:45:51;0.57;;;0.57;;
38940;SDS011;43236;47.208;7.518;2023-11-21T15:48:38;0.50;;;0.50;;
38940;SDS011;43236;47.208;7.518;2023-11-21T15:51:29;0.77;;;0.57;;
38940;SDS011;43236;47.208;7.518;2023-11-21T15:54:16;0.90;;;0.85;;
38940;SDS011;43236;47.208;7.518;2023-11-21T15:57:03;0.80;;;0.80;;
38940;SDS011;43236;47.208;7.518;2023-11-21T15:59:51;0.60;;;0.60;;
38940;SDS011;43236;47.208;7.518;2023-11-21T16:02:40;0.50;;;0.50;;
38940;SDS011;43236;47.208;7.518;2023-11-21T16:05:26;1.67;;;1.10;;
38940;SDS011;43236;47.208;7.518;2023-11-21T16:08:14;0.95;;;0.85;;
38940;SDS011;43236;47.208;7.518;2023-11-21T16:11:02;1.08;;;0.98;;
38940;SDS011;43236;47.208;7.518;2023-11-21T16:13:49;0.70;;;0.47;;
38940;SDS011;43236;47.208;7.518;2023-11-21T16:16:36;0.50;;;0.50;;
38940;SDS011;43236;47.208;7.518;2023-11-21T16:19:24;0.60;;;0.60;;
38940;SDS011;43236;47.208;7.518;2023-11-21T16:22:11;1.75;;;0.55;;
38940;SDS011;43236;47.208;7.518;2023-11-21T16:24:58;1.25;;;0.93;;
38940;SDS011;43236;47.208;7.518;2023-11-21T16:27:46;0.40;;;0.40;;
38940;SDS011;43236;47.208;7.518;2023-11-21T16:30:33;0.60;;;0.60;;
38940;SDS011;43236;47.208;7.518;2023-11-21T16:33:20;1.13;;;1.02;;
38940;SDS011;43236;47.208;7.518;2023-11-21T16:36:09;1.48;;;0.98;;
38940;SDS011;43236;47.208;7.518;2023-11-21T16:38:56;0.60;;;0.60;;
38940;SDS011;43236;47.208;7.518;2023-11-21T16:41:44;6.18;;;1.55;;
38940;SDS011;43236;47.208;7.518;2023-11-21T16:44:32;1.10;;;0.88;;
38940;SDS011;43236;47.208;7.518;2023-11-21T16:47:20;0.95;;;0.88;;
38940;SDS011;43236;47.208;7.518;2023-11-21T16:50:08;0.98;;;0.85;;
38940;SDS011;43236;47.208;7.518;2023-11-21T16:52:57;1.17;;;1.08;;
38940;SDS011;43236;47.208;7.518;2023-11-21T16:55:44;1.27;;;1.15;;